首页
METAR-TAF:

METAR-TAF

机场 :

布拉格, 捷克共和国

纬度: 50-12-59N, 经度: 014-23-42E, 海拔: 280米

当前天气观测

该预报发布于9小时和58分钟前的12:00 UTC
风速5节,风向北转西北,在西东北之间变化
温度 16°C
湿度 36%
气压 1016 hPa
能见度10公里或以上
1500米以下无云,无积雨云

METAR: LKVO 281200Z 33005KT 270V040 CAVOK 16/01 Q1016

时间: 22:58 (21:58 UTC)


TAF: 丢失

超过4000个机场的气象观测和天气预报(METAR&TAF报告)。

可查询的气象台以黄色和红色小点在地图上表示。

将鼠标移到小点上方,可查看气象台名称。

然后点击查看天气观测和预报。

如需切换地图:点击带黑十字的绿色按钮放大地图;点击带横线的绿色按钮缩小地图;或者点击绿色箭头查看邻近地区的地图。


METAR-TAF: